createdAt,value
2023-02-02T00:02:01.895Z,9.77
2023-02-02T00:04:41.119Z,6.78
2023-02-02T00:07:10.545Z,5.47
2023-02-02T00:09:44.144Z,5.27
2023-02-02T00:12:11.017Z,6.17
2023-02-02T00:14:44.066Z,6.07
2023-02-02T00:17:17.367Z,5.33
2023-02-02T00:19:51.078Z,9.83
2023-02-02T00:22:17.701Z,7.00
2023-02-02T00:24:51.096Z,5.50
2023-02-02T00:27:17.779Z,8.17
2023-02-02T00:29:44.898Z,7.37
2023-02-02T00:32:18.101Z,11.33
2023-02-02T00:34:44.740Z,4.70
2023-02-02T00:37:18.129Z,8.67
2023-02-02T00:39:44.742Z,7.07
2023-02-02T00:42:19.089Z,9.87
2023-02-02T00:45:04.392Z,5.97
2023-02-02T00:47:37.078Z,8.57
2023-02-02T00:50:04.489Z,6.10
2023-02-02T00:52:38.069Z,7.80
2023-02-02T00:55:12.087Z,9.57
2023-02-02T00:57:46.024Z,7.00
2023-02-02T01:00:15.938Z,8.33
2023-02-02T01:02:49.089Z,7.87
2023-02-02T01:05:23.395Z,6.03
2023-02-02T01:07:50.199Z,5.07
2023-02-02T01:10:27.064Z,10.00
2023-02-02T01:12:53.768Z,12.67
2023-02-02T01:15:27.100Z,9.60
2023-02-02T01:18:00.153Z,8.43
2023-02-02T01:20:33.070Z,10.23
2023-02-02T01:22:59.655Z,9.47
2023-02-02T01:25:34.083Z,17.87
2023-02-02T01:28:02.938Z,10.63
2023-02-02T01:30:36.137Z,12.33
2023-02-02T01:33:09.064Z,11.47
2023-02-02T01:35:36.009Z,9.20
2023-02-02T01:38:10.050Z,10.43
2023-02-02T01:40:37.280Z,14.33
2023-02-02T01:43:16.159Z,10.33
2023-02-02T01:45:43.151Z,13.83
2023-02-02T01:48:16.170Z,10.93
2023-02-02T01:50:43.827Z,13.27
2023-02-02T01:53:18.202Z,9.13
2023-02-02T01:55:45.031Z,10.50
2023-02-02T01:58:29.192Z,9.67
2023-02-02T02:01:02.140Z,14.60
2023-02-02T02:03:38.121Z,12.70
2023-02-02T02:06:09.144Z,12.37
2023-02-02T02:09:11.041Z,11.40
2023-02-02T02:11:37.868Z,11.63
2023-02-02T02:14:34.080Z,12.10
2023-02-02T02:17:18.852Z,16.70
2023-02-02T02:20:45.183Z,11.87
2023-02-02T02:23:48.994Z,11.80
2023-02-02T02:26:44.263Z,7.63
2023-02-02T02:29:54.084Z,11.50
2023-02-02T02:32:37.088Z,13.60
2023-02-02T02:35:19.203Z,12.65
2023-02-02T02:38:11.125Z,9.40
2023-02-02T02:40:50.134Z,13.10
2023-02-02T02:43:40.685Z,14.45
2023-02-02T02:46:16.098Z,10.90
2023-02-02T02:48:46.393Z,12.60
2023-02-02T02:51:55.075Z,16.02
2023-02-02T02:54:41.125Z,9.10
2023-02-02T02:57:26.478Z,15.38
2023-02-02T03:00:08.129Z,8.93
2023-02-02T03:02:56.166Z,19.05
2023-02-02T03:05:37.413Z,10.02
2023-02-02T03:08:40.118Z,12.05
2023-02-02T03:11:17.125Z,9.98
2023-02-02T03:13:51.135Z,10.20
2023-02-02T03:16:31.108Z,15.50
2023-02-02T03:18:58.221Z,14.43
2023-02-02T03:21:31.120Z,10.30
2023-02-02T03:23:57.728Z,14.35
2023-02-02T03:26:32.203Z,9.45
2023-02-02T03:28:58.903Z,9.73
2023-02-02T03:31:34.271Z,8.68
2023-02-02T03:34:07.234Z,10.30
2023-02-02T03:36:34.066Z,9.60
2023-02-02T03:39:00.749Z,12.30
2023-02-02T03:41:34.094Z,16.42
2023-02-02T03:44:00.729Z,10.35
2023-02-02T03:46:34.231Z,8.93
2023-02-02T03:49:00.930Z,14.38
2023-02-02T03:51:34.180Z,11.02
2023-02-02T03:54:00.942Z,10.27
2023-02-02T03:56:34.174Z,8.10
2023-02-02T03:59:07.165Z,8.77
2023-02-02T04:01:33.826Z,12.57
2023-02-02T04:04:07.155Z,12.65
2023-02-02T04:06:33.938Z,11.90
2023-02-02T04:09:07.179Z,10.93
2023-02-02T04:11:34.139Z,12.02
2023-02-02T04:14:07.228Z,10.13
2023-02-02T04:16:40.661Z,8.25
2023-02-02T04:19:14.321Z,10.40
2023-02-02T04:21:41.599Z,9.27
2023-02-02T04:24:25.169Z,7.83
2023-02-02T04:26:52.028Z,10.13
2023-02-02T04:29:25.191Z,8.85
2023-02-02T04:31:59.336Z,9.57
2023-02-02T04:34:32.240Z,10.63
2023-02-02T04:37:05.227Z,8.00
2023-02-02T04:39:31.815Z,4.57
2023-02-02T04:42:05.168Z,6.90
2023-02-02T04:44:31.757Z,7.73
2023-02-02T04:47:05.179Z,7.23
2023-02-02T04:49:31.951Z,7.90
2023-02-02T04:52:05.297Z,7.43
2023-02-02T04:54:39.152Z,7.77
2023-02-02T04:57:12.151Z,6.17
2023-02-02T04:59:41.927Z,6.20
2023-02-02T05:02:16.174Z,5.17
2023-02-02T05:04:42.812Z,4.73
2023-02-02T05:07:16.193Z,5.20
2023-02-02T05:09:49.199Z,4.37
2023-02-02T05:12:15.788Z,2.83
2023-02-02T05:14:49.174Z,2.60
2023-02-02T05:17:15.825Z,3.50
2023-02-02T05:19:49.149Z,4.03
2023-02-02T05:22:15.704Z,4.23
2023-02-02T05:24:49.242Z,1.70
2023-02-02T05:27:22.241Z,4.17
2023-02-02T05:29:55.187Z,3.40
2023-02-02T05:32:28.170Z,3.97
2023-02-02T05:35:01.185Z,2.03
2023-02-02T05:37:27.796Z,3.83
2023-02-02T05:40:01.167Z,4.17
2023-02-02T05:42:27.850Z,4.73
2023-02-02T05:45:02.582Z,4.47
2023-02-02T05:47:29.220Z,2.93
2023-02-02T05:50:03.463Z,3.97
2023-02-02T05:52:41.268Z,4.97
2023-02-02T05:55:09.806Z,5.70
2023-02-02T05:57:43.193Z,4.03
2023-02-02T06:00:17.182Z,5.27
2023-02-02T06:02:50.307Z,6.90
2023-02-02T06:05:23.536Z,6.60
2023-02-02T06:07:57.161Z,7.90
2023-02-02T06:10:23.864Z,13.03
2023-02-02T06:12:57.235Z,8.43
2023-02-02T06:15:44.340Z,8.70
2023-02-02T06:18:17.156Z,9.75
2023-02-02T06:20:50.253Z,12.60
2023-02-02T06:23:23.225Z,11.63
2023-02-02T06:25:56.192Z,9.77
2023-02-02T06:28:22.870Z,10.73
2023-02-02T06:30:56.357Z,6.22
2023-02-02T06:33:23.086Z,10.53
2023-02-02T06:35:56.266Z,12.33
2023-02-02T06:38:22.928Z,10.35
2023-02-02T06:40:56.447Z,9.65
2023-02-02T06:43:29.225Z,11.27
2023-02-02T06:46:04.368Z,7.33
2023-02-02T06:48:30.962Z,5.10
2023-02-02T06:51:06.235Z,5.25
2023-02-02T06:53:40.181Z,4.20
2023-02-02T06:56:16.203Z,4.32
2023-02-02T06:58:49.260Z,4.47
2023-02-02T07:01:22.264Z,2.80
2023-02-02T07:03:57.224Z,3.03
2023-02-02T07:06:33.213Z,1.92
2023-02-02T07:09:07.242Z,2.05
2023-02-02T07:11:42.809Z,2.00
2023-02-02T07:14:12.295Z,2.58
2023-02-02T07:16:52.211Z,1.67
2023-02-02T07:19:25.277Z,3.30
2023-02-02T07:21:51.906Z,2.92
2023-02-02T07:24:25.268Z,2.08
2023-02-02T07:26:51.883Z,1.80
2023-02-02T07:29:25.266Z,1.83
2023-02-02T07:31:58.412Z,1.98
2023-02-02T07:34:32.254Z,2.05
2023-02-02T07:37:05.231Z,2.17
2023-02-02T07:39:38.233Z,2.08
2023-02-02T07:42:12.240Z,1.70
2023-02-02T07:44:45.258Z,3.27
2023-02-02T07:47:11.950Z,1.60
2023-02-02T07:49:38.695Z,1.40
2023-02-02T07:52:12.298Z,1.53
2023-02-02T07:54:38.895Z,1.67
2023-02-02T07:57:12.358Z,2.87
2023-02-02T07:59:39.113Z,1.70
2023-02-02T08:02:13.300Z,1.52
2023-02-02T08:04:40.049Z,1.80
2023-02-02T08:07:15.042Z,1.70
2023-02-02T08:09:53.396Z,1.90
2023-02-02T08:12:21.463Z,2.03
2023-02-02T08:14:54.336Z,1.83
2023-02-02T08:17:27.479Z,3.23
2023-02-02T08:20:00.435Z,2.70
2023-02-02T08:22:27.280Z,1.90
2023-02-02T08:25:00.392Z,2.40
2023-02-02T08:27:29.480Z,2.33
2023-02-02T08:30:02.311Z,3.00
2023-02-02T08:32:38.334Z,2.07
2023-02-02T08:35:07.396Z,2.30
2023-02-02T08:37:40.315Z,2.20
2023-02-02T08:40:16.564Z,2.60
2023-02-02T08:42:50.287Z,3.05
2023-02-02T08:46:01.207Z,2.33
2023-02-02T08:48:16.252Z,2.57
2023-02-02T08:50:43.122Z,2.30
2023-02-02T08:53:18.889Z,2.67
2023-02-02T08:55:45.459Z,2.50
2023-02-02T08:58:18.299Z,3.57
2023-02-02T09:00:44.969Z,2.63
2023-02-02T09:03:18.323Z,3.10
2023-02-02T09:05:44.879Z,2.87
2023-02-02T09:08:11.609Z,2.67
2023-02-02T09:10:46.472Z,4.07
2023-02-02T09:13:19.689Z,2.60
2023-02-02T09:16:07.383Z,2.63
2023-02-02T09:18:40.261Z,2.40
2023-02-02T09:21:16.276Z,3.97
2023-02-02T09:23:51.254Z,2.60
2023-02-02T09:26:27.494Z,3.33
2023-02-02T09:29:03.038Z,3.33
2023-02-02T09:31:39.277Z,4.32
2023-02-02T09:34:09.071Z,3.17
2023-02-02T09:36:43.266Z,5.00
2023-02-02T09:39:19.662Z,4.40
2023-02-02T09:42:15.350Z,4.88
2023-02-02T09:45:13.364Z,6.05
2023-02-02T09:47:52.426Z,5.23
2023-02-02T09:50:31.851Z,4.72
2023-02-02T09:53:27.328Z,4.63
2023-02-02T09:55:58.969Z,5.40
2023-02-02T09:58:39.359Z,6.13
2023-02-02T10:01:23.249Z,5.17
2023-02-02T10:04:14.320Z,5.77
2023-02-02T10:06:48.430Z,5.93
2023-02-02T10:09:30.272Z,5.83
2023-02-02T10:12:00.733Z,7.20
2023-02-02T10:14:41.524Z,6.73
2023-02-02T10:17:43.301Z,8.88
2023-02-02T10:20:44.842Z,18.77
2023-02-02T10:23:34.510Z,16.83
2023-02-02T10:26:25.344Z,15.02
2023-02-02T10:29:17.450Z,18.27
2023-02-02T10:32:31.312Z,17.05
2023-02-02T10:35:17.202Z,18.13
2023-02-02T10:38:04.400Z,16.30
2023-02-02T10:40:31.136Z,12.95
2023-02-02T10:43:35.398Z,16.25
2023-02-02T10:46:04.899Z,12.38
2023-02-02T10:48:42.462Z,15.30
2023-02-02T10:51:27.339Z,13.70
2023-02-02T10:53:58.194Z,17.27
2023-02-02T10:56:40.298Z,17.27
2023-02-02T10:59:24.357Z,15.13
2023-02-02T11:01:51.352Z,12.85
2023-02-02T11:04:45.409Z,16.05
2023-02-02T11:07:20.581Z,13.38
2023-02-02T11:09:54.417Z,13.98
2023-02-02T11:12:37.080Z,10.80
2023-02-02T11:15:17.489Z,13.85
2023-02-02T11:17:57.293Z,14.30
2023-02-02T11:20:42.095Z,11.85
2023-02-02T11:23:24.353Z,14.27
2023-02-02T11:26:01.870Z,12.55
2023-02-02T11:28:40.435Z,13.50
2023-02-02T11:31:07.338Z,12.10
2023-02-02T11:33:43.409Z,14.18
2023-02-02T11:36:22.076Z,14.95
2023-02-02T11:38:55.304Z,14.48
2023-02-02T11:41:21.999Z,11.20
2023-02-02T11:44:01.350Z,11.38
2023-02-02T11:46:41.428Z,12.85
2023-02-02T11:49:27.514Z,9.60
2023-02-02T11:52:09.673Z,12.40
2023-02-02T11:54:45.426Z,14.13
2023-02-02T11:57:18.346Z,10.13
2023-02-02T11:59:53.473Z,10.02
2023-02-02T12:02:25.786Z,7.75
2023-02-02T12:05:23.427Z,12.70
2023-02-02T12:07:50.734Z,14.02
2023-02-02T12:10:36.621Z,11.52
2023-02-02T12:13:59.513Z,11.20
2023-02-02T12:16:48.060Z,11.10
2023-02-02T12:19:46.225Z,8.50
2023-02-02T12:22:48.608Z,14.10
2023-02-02T12:25:22.625Z,9.98
2023-02-02T12:28:06.451Z,10.40
2023-02-02T12:30:49.080Z,11.00
2023-02-02T12:33:34.246Z,11.70
2023-02-02T12:36:31.360Z,11.70
2023-02-02T12:39:35.202Z,12.57
2023-02-02T12:42:01.870Z,11.02
2023-02-02T12:44:50.485Z,10.15
2023-02-02T12:47:53.358Z,8.77
2023-02-02T12:50:38.057Z,9.52
2023-02-02T12:53:43.474Z,14.00
2023-02-02T12:56:24.865Z,13.13
2023-02-02T12:59:32.350Z,13.32
2023-02-02T13:02:17.560Z,10.32
2023-02-02T13:05:05.409Z,11.45
2023-02-02T13:07:52.753Z,13.27
2023-02-02T13:10:44.598Z,14.10
2023-02-02T13:13:26.512Z,14.43
2023-02-02T13:16:04.473Z,12.60
2023-02-02T13:19:07.407Z,11.02
2023-02-02T13:21:36.777Z,13.48
2023-02-02T13:24:13.569Z,12.13
2023-02-02T13:26:46.039Z,10.90
2023-02-02T13:29:48.079Z,13.20
2023-02-02T13:32:25.391Z,13.13
2023-02-02T13:35:10.859Z,14.05
2023-02-02T13:37:53.466Z,18.33
2023-02-02T13:40:41.962Z,15.77
2023-02-02T13:43:18.679Z,16.08
2023-02-02T13:46:22.650Z,17.83
2023-02-02T13:49:17.437Z,13.00
2023-02-02T13:52:29.077Z,18.23
2023-02-02T13:55:30.474Z,13.98
2023-02-02T13:58:22.309Z,13.10
2023-02-02T14:01:00.414Z,18.13
2023-02-02T14:03:38.946Z,17.90
2023-02-02T14:06:26.451Z,17.05
2023-02-02T14:08:57.980Z,17.58
2023-02-02T14:11:45.413Z,22.48
2023-02-02T14:14:39.479Z,14.25
2023-02-02T14:17:19.655Z,14.73
2023-02-02T14:20:00.515Z,22.02
2023-02-02T14:22:55.487Z,13.40
2023-02-02T14:25:34.281Z,15.50
2023-02-02T14:28:16.529Z,13.30
2023-02-02T14:30:50.598Z,11.43
2023-02-02T14:33:45.556Z,10.50
2023-02-02T14:36:21.483Z,11.02
2023-02-02T14:38:53.647Z,12.02
2023-02-02T14:42:01.464Z,12.88
2023-02-02T14:44:35.523Z,10.40
2023-02-02T14:47:05.502Z,12.60
2023-02-02T14:49:42.451Z,13.13
2023-02-02T14:52:28.449Z,13.40
2023-02-02T14:55:02.421Z,13.90
2023-02-02T14:57:36.425Z,13.60
2023-02-02T15:00:10.498Z,13.43
2023-02-02T15:02:38.294Z,13.85
2023-02-02T15:05:37.440Z,16.55
2023-02-02T15:08:23.968Z,12.15
2023-02-02T15:11:00.505Z,12.70
2023-02-02T15:13:44.550Z,15.68
2023-02-02T15:16:29.548Z,15.27
2023-02-02T15:19:25.464Z,11.40
2023-02-02T15:22:03.542Z,11.68
2023-02-02T15:24:40.246Z,12.10
2023-02-02T15:27:18.469Z,12.07
2023-02-02T15:29:54.488Z,15.45
2023-02-02T15:32:28.232Z,12.65
2023-02-02T15:35:08.569Z,10.05
2023-02-02T15:37:41.827Z,12.77
2023-02-02T15:40:23.536Z,16.90
2023-02-02T15:42:55.107Z,10.95
2023-02-02T15:45:54.425Z,12.38
2023-02-02T15:48:30.304Z,11.20
2023-02-02T15:51:11.777Z,14.05
2023-02-02T15:53:38.494Z,12.90
2023-02-02T15:56:29.518Z,9.00
2023-02-02T15:59:07.474Z,9.90
2023-02-02T16:01:55.510Z,12.70
2023-02-02T16:04:35.520Z,9.32
2023-02-02T16:07:10.510Z,14.50
2023-02-02T16:09:45.476Z,11.73
2023-02-02T16:12:30.552Z,9.52
2023-02-02T16:15:04.541Z,7.97
2023-02-02T16:17:44.479Z,9.05
2023-02-02T16:20:23.623Z,8.27
2023-02-02T16:22:57.455Z,9.10
2023-02-02T16:25:24.940Z,9.18
2023-02-02T16:28:00.679Z,9.60
2023-02-02T16:30:39.824Z,10.02
2023-02-02T16:33:34.454Z,11.50
2023-02-02T16:36:12.673Z,10.55
2023-02-02T16:38:39.618Z,10.57
2023-02-02T16:41:18.478Z,7.80
2023-02-02T16:43:45.183Z,8.48
2023-02-02T16:46:21.502Z,7.13
2023-02-02T16:49:00.476Z,7.82
2023-02-02T16:51:35.460Z,7.78
2023-02-02T16:54:08.186Z,8.52
2023-02-02T16:56:46.425Z,8.30
2023-02-02T16:59:33.451Z,8.40
2023-02-02T17:02:34.551Z,9.48
2023-02-02T17:05:22.628Z,7.85
2023-02-02T17:08:00.454Z,8.48
2023-02-02T17:10:48.504Z,9.55
2023-02-02T17:13:43.444Z,9.65
2023-02-02T17:16:36.503Z,9.98
2023-02-02T17:19:09.573Z,10.70
2023-02-02T17:21:36.183Z,10.07
2023-02-02T17:24:09.509Z,9.07
2023-02-02T17:26:36.682Z,11.35
2023-02-02T17:29:11.555Z,10.35
2023-02-02T17:31:38.315Z,9.55
2023-02-02T17:34:18.491Z,10.65
2023-02-02T17:36:45.278Z,9.77
2023-02-02T17:39:18.532Z,8.75
2023-02-02T17:41:54.507Z,7.82
2023-02-02T17:44:27.623Z,8.18
2023-02-02T17:46:54.255Z,7.78
2023-02-02T17:49:27.665Z,8.90
2023-02-02T17:52:00.538Z,8.00
2023-02-02T17:54:27.097Z,10.43
2023-02-02T17:57:00.519Z,9.10
2023-02-02T17:59:27.114Z,8.90
2023-02-02T18:02:01.450Z,9.00
2023-02-02T18:04:28.471Z,8.45
2023-02-02T18:07:01.557Z,8.43
2023-02-02T18:09:33.848Z,8.05
2023-02-02T18:12:07.552Z,8.02
2023-02-02T18:14:34.264Z,8.20
2023-02-02T18:17:14.584Z,9.15
2023-02-02T18:19:44.986Z,8.98
2023-02-02T18:22:20.615Z,9.43
2023-02-02T18:24:48.405Z,9.00
2023-02-02T18:27:22.602Z,9.23
2023-02-02T18:29:55.548Z,9.65
2023-02-02T18:32:22.245Z,9.82
2023-02-02T18:34:57.565Z,9.30
2023-02-02T18:37:32.583Z,10.65
2023-02-02T18:40:06.791Z,10.88
2023-02-02T18:42:34.511Z,9.50
2023-02-02T18:45:08.704Z,10.45
2023-02-02T18:47:35.333Z,9.85
2023-02-02T18:50:08.597Z,9.90
2023-02-02T18:52:35.278Z,8.85
2023-02-02T18:55:08.887Z,10.45
2023-02-02T18:57:35.502Z,10.93
2023-02-02T19:00:09.578Z,12.13
2023-02-02T19:02:36.233Z,12.80
2023-02-02T19:05:28.750Z,13.77
2023-02-02T19:07:55.599Z,11.93
2023-02-02T19:10:24.144Z,10.38
2023-02-02T19:13:02.568Z,11.48
2023-02-02T19:15:39.512Z,11.80
2023-02-02T19:18:27.592Z,10.52
2023-02-02T19:21:00.573Z,13.90
2023-02-02T19:23:38.565Z,10.88
2023-02-02T19:26:30.734Z,14.30
2023-02-02T19:29:12.670Z,12.88
2023-02-02T19:31:40.205Z,14.13
2023-02-02T19:34:18.531Z,12.90
2023-02-02T19:36:46.937Z,13.82
2023-02-02T19:39:25.518Z,12.23
2023-02-02T19:41:56.864Z,13.60
2023-02-02T19:44:25.382Z,13.60
2023-02-02T19:46:59.616Z,14.15
2023-02-02T19:49:34.419Z,17.30
2023-02-02T19:52:10.585Z,13.98
2023-02-02T19:54:39.449Z,17.80
2023-02-02T19:57:43.557Z,15.48
2023-02-02T20:00:31.604Z,14.57
2023-02-02T20:03:11.679Z,16.85
2023-02-02T20:05:53.558Z,13.57
2023-02-02T20:08:47.612Z,15.00
2023-02-02T20:11:23.859Z,18.13
2023-02-02T20:13:57.572Z,16.25
2023-02-02T20:16:47.623Z,17.13
2023-02-02T20:19:29.155Z,18.50
2023-02-02T20:22:03.644Z,13.98
2023-02-02T20:24:42.315Z,20.58
2023-02-02T20:27:24.750Z,12.85
2023-02-02T20:29:53.617Z,19.77
2023-02-02T20:32:45.562Z,16.13
2023-02-02T20:35:35.617Z,13.13
2023-02-02T20:38:19.640Z,13.73
2023-02-02T20:40:52.646Z,15.00
2023-02-02T20:43:25.541Z,13.25
2023-02-02T20:45:58.697Z,12.10
2023-02-02T20:48:25.744Z,13.35
2023-02-02T20:50:58.594Z,12.55
2023-02-02T20:53:25.222Z,15.65
2023-02-02T20:56:03.622Z,15.23
2023-02-02T20:58:36.621Z,11.73
2023-02-02T21:01:11.696Z,15.27
2023-02-02T21:03:38.325Z,15.00
2023-02-02T21:06:11.638Z,17.42
2023-02-02T21:08:38.521Z,14.25
2023-02-02T21:11:11.574Z,12.90
2023-02-02T21:13:44.664Z,13.18
2023-02-02T21:16:17.678Z,15.60
2023-02-02T21:18:51.330Z,15.13
2023-02-02T21:21:25.701Z,17.08
2023-02-02T21:23:58.583Z,16.10
2023-02-02T21:26:30.695Z,14.50
2023-02-02T21:29:04.693Z,17.95
2023-02-02T21:31:35.319Z,13.68
2023-02-02T21:34:09.645Z,14.45
2023-02-02T21:36:39.213Z,12.77
2023-02-02T21:39:33.660Z,14.40
2023-02-02T21:42:09.433Z,11.60
2023-02-02T21:44:49.680Z,12.68
2023-02-02T21:47:48.618Z,14.18
2023-02-02T21:50:25.014Z,11.82
2023-02-02T21:52:53.828Z,14.07
2023-02-02T21:55:43.645Z,11.32
2023-02-02T21:58:28.665Z,13.18
2023-02-02T22:01:05.718Z,9.98
2023-02-02T22:03:34.937Z,13.40
2023-02-02T22:06:34.643Z,13.98
2023-02-02T22:09:26.247Z,12.63
2023-02-02T22:12:07.645Z,11.85
2023-02-02T22:14:40.170Z,15.30
2023-02-02T22:17:26.667Z,14.23
2023-02-02T22:20:03.019Z,13.35
2023-02-02T22:22:41.684Z,14.40
2023-02-02T22:25:16.974Z,15.60
2023-02-02T22:28:04.696Z,11.48
2023-02-02T22:30:40.090Z,9.27
2023-02-02T22:33:15.606Z,12.65
2023-02-02T22:35:43.230Z,13.32
2023-02-02T22:38:17.618Z,13.55
2023-02-02T22:40:45.240Z,13.07
2023-02-02T22:43:19.700Z,9.45
2023-02-02T22:45:52.992Z,12.85
2023-02-02T22:48:26.623Z,10.77
2023-02-02T22:50:53.290Z,11.82
2023-02-02T22:53:20.083Z,15.07
2023-02-02T22:55:53.787Z,10.18
2023-02-02T22:58:20.461Z,9.93
2023-02-02T23:00:53.654Z,15.38
2023-02-02T23:03:20.501Z,15.18
2023-02-02T23:05:53.663Z,13.10
2023-02-02T23:08:20.304Z,13.80
2023-02-02T23:10:47.569Z,12.13
2023-02-02T23:13:20.735Z,9.90
2023-02-02T23:15:47.484Z,12.15
2023-02-02T23:18:27.640Z,19.20
2023-02-02T23:21:00.698Z,13.02
2023-02-02T23:23:33.642Z,11.82
2023-02-02T23:26:00.245Z,16.20
2023-02-02T23:28:33.655Z,12.40
2023-02-02T23:31:00.396Z,14.43
2023-02-02T23:33:33.675Z,13.57
2023-02-02T23:36:00.443Z,14.07
2023-02-02T23:38:33.643Z,14.63
2023-02-02T23:41:00.565Z,15.73
2023-02-02T23:43:33.629Z,13.20
2023-02-02T23:46:00.587Z,18.33
2023-02-02T23:48:33.708Z,14.85
2023-02-02T23:51:06.796Z,14.27
2023-02-02T23:53:33.594Z,16.63
2023-02-02T23:56:06.717Z,16.95
2023-02-02T23:58:33.311Z,16.92
